sensor_id;sensor_type;location;lat;lon;timestamp;temperature;humidity
4725;DHT22;2376;53.544;10.226;2023-05-10T00:00:19;13.70;96.10
4725;DHT22;2376;53.544;10.226;2023-05-10T00:02:45;13.80;96.00
4725;DHT22;2376;53.544;10.226;2023-05-10T00:05:12;13.80;96.00
4725;DHT22;2376;53.544;10.226;2023-05-10T00:07:40;13.70;96.50
4725;DHT22;2376;53.544;10.226;2023-05-10T00:10:10;13.50;97.70
4725;DHT22;2376;53.544;10.226;2023-05-10T00:12:37;13.50;98.30
4725;DHT22;2376;53.544;10.226;2023-05-10T00:15:04;13.50;98.60
4725;DHT22;2376;53.544;10.226;2023-05-10T00:17:31;13.50;98.90
4725;DHT22;2376;53.544;10.226;2023-05-10T00:19:57;13.70;98.30
4725;DHT22;2376;53.544;10.226;2023-05-10T00:22:24;13.70;98.00
4725;DHT22;2376;53.544;10.226;2023-05-10T00:24:52;13.80;97.60
4725;DHT22;2376;53.544;10.226;2023-05-10T00:27:19;13.60;98.80
4725;DHT22;2376;53.544;10.226;2023-05-10T00:29:45;13.50;99.20
4725;DHT22;2376;53.544;10.226;2023-05-10T00:32:12;13.30;99.90
4725;DHT22;2376;53.544;10.226;2023-05-10T00:34:39;13.20;99.90
4725;DHT22;2376;53.544;10.226;2023-05-10T00:37:06;13.30;99.90
4725;DHT22;2376;53.544;10.226;2023-05-10T00:39:32;13.10;99.90
4725;DHT22;2376;53.544;10.226;2023-05-10T00:42:00;13.10;99.90
4725;DHT22;2376;53.544;10.226;2023-05-10T00:44:27;13.10;99.90
4725;DHT22;2376;53.544;10.226;2023-05-10T00:46:54;13.00;99.90
4725;DHT22;2376;53.544;10.226;2023-05-10T00:49:21;12.90;99.90
4725;DHT22;2376;53.544;10.226;2023-05-10T00:51:47;13.00;99.90
4725;DHT22;2376;53.544;10.226;2023-05-10T00:54:15;13.00;99.90
4725;DHT22;2376;53.544;10.226;2023-05-10T00:56:42;13.00;99.90
4725;DHT22;2376;53.544;10.226;2023-05-10T00:59:15;13.20;99.90
4725;DHT22;2376;53.544;10.226;2023-05-10T01:01:43;13.40;99.90
4725;DHT22;2376;53.544;10.226;2023-05-10T01:04:10;13.20;99.90
4725;DHT22;2376;53.544;10.226;2023-05-10T01:06:38;13.10;99.90
4725;DHT22;2376;53.544;10.226;2023-05-10T01:09:04;12.90;99.90
4725;DHT22;2376;53.544;10.226;2023-05-10T01:11:32;13.10;99.90
4725;DHT22;2376;53.544;10.226;2023-05-10T01:13:58;13.10;99.90
4725;DHT22;2376;53.544;10.226;2023-05-10T01:16:27;13.10;99.90
4725;DHT22;2376;53.544;10.226;2023-05-10T01:18:55;12.90;99.90
4725;DHT22;2376;53.544;10.226;2023-05-10T01:21:27;12.80;99.90
4725;DHT22;2376;53.544;10.226;2023-05-10T01:24:38;13.00;99.90
4725;DHT22;2376;53.544;10.226;2023-05-10T01:27:36;13.20;99.90
4725;DHT22;2376;53.544;10.226;2023-05-10T01:30:24;13.30;99.90
4725;DHT22;2376;53.544;10.226;2023-05-10T01:32:59;13.30;99.90
4725;DHT22;2376;53.544;10.226;2023-05-10T01:35:32;13.30;99.90
4725;DHT22;2376;53.544;10.226;2023-05-10T01:38:10;13.20;99.90
4725;DHT22;2376;53.544;10.226;2023-05-10T01:40:47;13.20;99.90
4725;DHT22;2376;53.544;10.226;2023-05-10T01:43:19;13.20;99.90
4725;DHT22;2376;53.544;10.226;2023-05-10T01:45:50;13.20;99.90
4725;DHT22;2376;53.544;10.226;2023-05-10T01:48:23;13.20;99.90
4725;DHT22;2376;53.544;10.226;2023-05-10T01:50:52;13.10;99.90
4725;DHT22;2376;53.544;10.226;2023-05-10T01:53:21;13.00;99.90
4725;DHT22;2376;53.544;10.226;2023-05-10T01:55:50;12.90;99.90
4725;DHT22;2376;53.544;10.226;2023-05-10T01:58:21;12.90;99.90
4725;DHT22;2376;53.544;10.226;2023-05-10T02:00:50;12.80;99.90
4725;DHT22;2376;53.544;10.226;2023-05-10T02:03:23;12.80;99.90
4725;DHT22;2376;53.544;10.226;2023-05-10T02:05:50;12.90;99.90
4725;DHT22;2376;53.544;10.226;2023-05-10T02:08:18;12.80;99.90
4725;DHT22;2376;53.544;10.226;2023-05-10T02:10:49;12.90;99.90
4725;DHT22;2376;53.544;10.226;2023-05-10T02:13:17;12.80;99.90
4725;DHT22;2376;53.544;10.226;2023-05-10T02:15:48;12.60;99.90
4725;DHT22;2376;53.544;10.226;2023-05-10T02:18:15;12.60;99.90
4725;DHT22;2376;53.544;10.226;2023-05-10T02:20:45;12.60;99.90
4725;DHT22;2376;53.544;10.226;2023-05-10T02:23:13;12.60;99.90
4725;DHT22;2376;53.544;10.226;2023-05-10T02:25:43;12.60;99.90
4725;DHT22;2376;53.544;10.226;2023-05-10T02:28:11;12.50;99.90
4725;DHT22;2376;53.544;10.226;2023-05-10T02:30:39;12.50;99.90
4725;DHT22;2376;53.544;10.226;2023-05-10T02:33:07;12.40;99.90
4725;DHT22;2376;53.544;10.226;2023-05-10T02:35:34;12.30;99.90
4725;DHT22;2376;53.544;10.226;2023-05-10T02:38:02;12.40;99.90
4725;DHT22;2376;53.544;10.226;2023-05-10T02:40:30;12.50;99.90
4725;DHT22;2376;53.544;10.226;2023-05-10T02:42:59;12.50;99.90
4725;DHT22;2376;53.544;10.226;2023-05-10T02:45:30;12.30;99.90
4725;DHT22;2376;53.544;10.226;2023-05-10T02:47:58;12.20;99.90
4725;DHT22;2376;53.544;10.226;2023-05-10T02:50:27;12.20;99.90
4725;DHT22;2376;53.544;10.226;2023-05-10T02:52:58;12.20;99.90
4725;DHT22;2376;53.544;10.226;2023-05-10T02:55:31;12.20;99.90
4725;DHT22;2376;53.544;10.226;2023-05-10T02:58:00;12.20;99.90
4725;DHT22;2376;53.544;10.226;2023-05-10T03:00:28;12.00;99.90
4725;DHT22;2376;53.544;10.226;2023-05-10T03:02:55;12.10;99.90
4725;DHT22;2376;53.544;10.226;2023-05-10T03:05:22;12.10;99.90
4725;DHT22;2376;53.544;10.226;2023-05-10T03:07:49;12.10;99.90
4725;DHT22;2376;53.544;10.226;2023-05-10T03:10:16;12.20;99.90
4725;DHT22;2376;53.544;10.226;2023-05-10T03:13:05;11.90;99.90
4725;DHT22;2376;53.544;10.226;2023-05-10T03:15:40;11.90;99.90
4725;DHT22;2376;53.544;10.226;2023-05-10T03:18:11;12.00;99.90
4725;DHT22;2376;53.544;10.226;2023-05-10T03:20:42;12.20;99.90
4725;DHT22;2376;53.544;10.226;2023-05-10T03:23:13;12.10;99.90
4725;DHT22;2376;53.544;10.226;2023-05-10T03:25:41;12.00;99.90
4725;DHT22;2376;53.544;10.226;2023-05-10T03:28:11;12.00;99.90
4725;DHT22;2376;53.544;10.226;2023-05-10T03:30:38;12.10;99.90
4725;DHT22;2376;53.544;10.226;2023-05-10T03:33:06;12.20;99.90
4725;DHT22;2376;53.544;10.226;2023-05-10T03:35:32;12.10;99.90
4725;DHT22;2376;53.544;10.226;2023-05-10T03:37:59;12.00;99.90
4725;DHT22;2376;53.544;10.226;2023-05-10T03:40:26;12.10;99.90
4725;DHT22;2376;53.544;10.226;2023-05-10T03:42:54;12.10;99.90
4725;DHT22;2376;53.544;10.226;2023-05-10T03:45:22;12.10;99.90
4725;DHT22;2376;53.544;10.226;2023-05-10T03:47:49;12.20;99.90
4725;DHT22;2376;53.544;10.226;2023-05-10T03:50:15;12.20;99.90
4725;DHT22;2376;53.544;10.226;2023-05-10T03:52:42;12.00;99.90
4725;DHT22;2376;53.544;10.226;2023-05-10T03:55:10;12.10;99.90
4725;DHT22;2376;53.544;10.226;2023-05-10T03:57:36;11.80;99.90
4725;DHT22;2376;53.544;10.226;2023-05-10T04:00:03;11.80;99.90
4725;DHT22;2376;53.544;10.226;2023-05-10T04:02:32;11.90;99.90
4725;DHT22;2376;53.544;10.226;2023-05-10T04:04:58;11.90;99.90
4725;DHT22;2376;53.544;10.226;2023-05-10T04:07:25;11.80;99.90
4725;DHT22;2376;53.544;10.226;2023-05-10T04:09:52;11.80;99.90
4725;DHT22;2376;53.544;10.226;2023-05-10T04:12:18;11.90;99.90
4725;DHT22;2376;53.544;10.226;2023-05-10T04:14:45;12.00;99.90
4725;DHT22;2376;53.544;10.226;2023-05-10T04:17:12;12.00;99.90
4725;DHT22;2376;53.544;10.226;2023-05-10T04:19:40;12.00;99.90
4725;DHT22;2376;53.544;10.226;2023-05-10T04:22:06;11.90;99.90
4725;DHT22;2376;53.544;10.226;2023-05-10T04:24:34;11.90;99.90
4725;DHT22;2376;53.544;10.226;2023-05-10T04:27:00;12.10;99.90
4725;DHT22;2376;53.544;10.226;2023-05-10T04:29:27;12.20;99.90
4725;DHT22;2376;53.544;10.226;2023-05-10T04:31:54;12.10;99.90
4725;DHT22;2376;53.544;10.226;2023-05-10T04:34:22;12.00;99.90
4725;DHT22;2376;53.544;10.226;2023-05-10T04:36:49;12.00;99.90
4725;DHT22;2376;53.544;10.226;2023-05-10T04:39:16;12.00;99.90
4725;DHT22;2376;53.544;10.226;2023-05-10T04:41:43;12.00;99.90
4725;DHT22;2376;53.544;10.226;2023-05-10T04:44:10;11.90;99.90
4725;DHT22;2376;53.544;10.226;2023-05-10T04:46:36;11.90;99.90
4725;DHT22;2376;53.544;10.226;2023-05-10T04:49:03;11.90;99.90
4725;DHT22;2376;53.544;10.226;2023-05-10T04:51:30;11.80;99.90
4725;DHT22;2376;53.544;10.226;2023-05-10T04:53:58;12.00;99.90
4725;DHT22;2376;53.544;10.226;2023-05-10T04:56:25;11.90;99.90
4725;DHT22;2376;53.544;10.226;2023-05-10T04:58:51;12.00;99.90
4725;DHT22;2376;53.544;10.226;2023-05-10T05:01:18;12.00;99.90
4725;DHT22;2376;53.544;10.226;2023-05-10T05:03:45;12.00;99.90
4725;DHT22;2376;53.544;10.226;2023-05-10T05:06:11;12.20;99.90
4725;DHT22;2376;53.544;10.226;2023-05-10T05:08:38;12.20;99.90
4725;DHT22;2376;53.544;10.226;2023-05-10T05:11:06;12.30;99.90
4725;DHT22;2376;53.544;10.226;2023-05-10T05:13:33;12.40;99.90
4725;DHT22;2376;53.544;10.226;2023-05-10T05:16:00;12.40;99.90
4725;DHT22;2376;53.544;10.226;2023-05-10T05:18:27;12.40;99.90
4725;DHT22;2376;53.544;10.226;2023-05-10T05:20:54;12.30;99.90
4725;DHT22;2376;53.544;10.226;2023-05-10T05:23:21;12.40;99.90
4725;DHT22;2376;53.544;10.226;2023-05-10T05:25:50;12.40;99.90
4725;DHT22;2376;53.544;10.226;2023-05-10T05:28:18;12.60;99.90
4725;DHT22;2376;53.544;10.226;2023-05-10T05:30:45;12.70;99.90
4725;DHT22;2376;53.544;10.226;2023-05-10T05:33:13;12.70;99.90
4725;DHT22;2376;53.544;10.226;2023-05-10T05:35:40;12.80;99.90
4725;DHT22;2376;53.544;10.226;2023-05-10T05:38:08;13.00;99.90
4725;DHT22;2376;53.544;10.226;2023-05-10T05:40:35;13.20;99.90
4725;DHT22;2376;53.544;10.226;2023-05-10T05:43:01;13.30;99.90
4725;DHT22;2376;53.544;10.226;2023-05-10T05:45:29;13.40;99.90
4725;DHT22;2376;53.544;10.226;2023-05-10T05:47:56;13.40;99.90
4725;DHT22;2376;53.544;10.226;2023-05-10T05:50:23;13.40;99.90
4725;DHT22;2376;53.544;10.226;2023-05-10T05:52:49;13.40;99.90
4725;DHT22;2376;53.544;10.226;2023-05-10T05:55:16;13.30;99.90
4725;DHT22;2376;53.544;10.226;2023-05-10T05:57:43;13.50;99.90
4725;DHT22;2376;53.544;10.226;2023-05-10T06:00:10;13.40;99.90
4725;DHT22;2376;53.544;10.226;2023-05-10T06:02:38;13.50;99.90
4725;DHT22;2376;53.544;10.226;2023-05-10T06:05:06;13.60;99.90
4725;DHT22;2376;53.544;10.226;2023-05-10T06:07:33;13.70;99.90
4725;DHT22;2376;53.544;10.226;2023-05-10T06:09:59;13.50;99.90
4725;DHT22;2376;53.544;10.226;2023-05-10T06:12:26;13.60;99.90
4725;DHT22;2376;53.544;10.226;2023-05-10T06:14:53;13.70;99.90
4725;DHT22;2376;53.544;10.226;2023-05-10T06:17:19;13.90;99.90
4725;DHT22;2376;53.544;10.226;2023-05-10T06:19:48;13.90;99.90
4725;DHT22;2376;53.544;10.226;2023-05-10T06:22:15;13.90;99.90
4725;DHT22;2376;53.544;10.226;2023-05-10T06:24:42;14.00;99.90
4725;DHT22;2376;53.544;10.226;2023-05-10T06:27:09;13.60;99.90
4725;DHT22;2376;53.544;10.226;2023-05-10T06:29:35;13.40;99.90
4725;DHT22;2376;53.544;10.226;2023-05-10T06:32:02;13.70;99.90
4725;DHT22;2376;53.544;10.226;2023-05-10T06:34:29;13.80;99.90
4725;DHT22;2376;53.544;10.226;2023-05-10T06:36:57;13.70;99.90
4725;DHT22;2376;53.544;10.226;2023-05-10T06:39:24;13.70;99.90
4725;DHT22;2376;53.544;10.226;2023-05-10T06:41:50;13.90;99.90
4725;DHT22;2376;53.544;10.226;2023-05-10T06:44:17;14.10;99.90
4725;DHT22;2376;53.544;10.226;2023-05-10T06:46:44;14.40;99.90
4725;DHT22;2376;53.544;10.226;2023-05-10T06:49:10;14.40;99.90
4725;DHT22;2376;53.544;10.226;2023-05-10T06:51:37;14.40;99.90
4725;DHT22;2376;53.544;10.226;2023-05-10T06:54:05;14.70;99.90
4725;DHT22;2376;53.544;10.226;2023-05-10T06:56:32;14.90;99.90
4725;DHT22;2376;53.544;10.226;2023-05-10T06:58:58;14.80;99.90
4725;DHT22;2376;53.544;10.226;2023-05-10T07:01:25;14.90;99.90
4725;DHT22;2376;53.544;10.226;2023-05-10T07:03:52;15.20;99.90
4725;DHT22;2376;53.544;10.226;2023-05-10T07:06:18;14.90;99.90
4725;DHT22;2376;53.544;10.226;2023-05-10T07:08:45;15.10;99.90
4725;DHT22;2376;53.544;10.226;2023-05-10T07:11:13;14.90;99.90
4725;DHT22;2376;53.544;10.226;2023-05-10T07:13:40;14.90;99.90
4725;DHT22;2376;53.544;10.226;2023-05-10T07:16:09;14.70;99.90
4725;DHT22;2376;53.544;10.226;2023-05-10T07:18:36;14.90;99.90
4725;DHT22;2376;53.544;10.226;2023-05-10T07:21:03;15.00;99.90
4725;DHT22;2376;53.544;10.226;2023-05-10T07:23:30;15.00;99.90
4725;DHT22;2376;53.544;10.226;2023-05-10T07:25:57;15.30;99.90
4725;DHT22;2376;53.544;10.226;2023-05-10T07:28:25;15.30;99.90
4725;DHT22;2376;53.544;10.226;2023-05-10T07:30:51;15.60;99.90
4725;DHT22;2376;53.544;10.226;2023-05-10T07:33:18;15.80;99.90
4725;DHT22;2376;53.544;10.226;2023-05-10T07:35:45;15.90;99.90
4725;DHT22;2376;53.544;10.226;2023-05-10T07:38:12;16.00;99.90
4725;DHT22;2376;53.544;10.226;2023-05-10T07:40:39;16.30;99.90
4725;DHT22;2376;53.544;10.226;2023-05-10T07:43:06;16.50;99.90
4725;DHT22;2376;53.544;10.226;2023-05-10T07:45:34;16.70;99.80
4725;DHT22;2376;53.544;10.226;2023-05-10T07:48:01;16.80;98.90
4725;DHT22;2376;53.544;10.226;2023-05-10T07:50:28;17.00;95.30
4725;DHT22;2376;53.544;10.226;2023-05-10T07:52:55;17.10;94.10
4725;DHT22;2376;53.544;10.226;2023-05-10T07:55:21;16.90;93.90
4725;DHT22;2376;53.544;10.226;2023-05-10T07:57:48;16.40;97.80
4725;DHT22;2376;53.544;10.226;2023-05-10T08:00:17;16.70;97.90
4725;DHT22;2376;53.544;10.226;2023-05-10T08:02:46;16.80;95.40
4725;DHT22;2376;53.544;10.226;2023-05-10T08:05:13;17.10;94.00
4725;DHT22;2376;53.544;10.226;2023-05-10T08:07:40;17.20;91.80
4725;DHT22;2376;53.544;10.226;2023-05-10T08:10:08;17.30;91.10
4725;DHT22;2376;53.544;10.226;2023-05-10T08:12:36;17.00;90.80
4725;DHT22;2376;53.544;10.226;2023-05-10T08:15:03;17.30;91.80
4725;DHT22;2376;53.544;10.226;2023-05-10T08:17:30;17.60;91.30
4725;DHT22;2376;53.544;10.226;2023-05-10T08:19:59;17.30;90.30
4725;DHT22;2376;53.544;10.226;2023-05-10T08:22:25;17.50;91.70
4725;DHT22;2376;53.544;10.226;2023-05-10T08:24:52;17.70;89.80
4725;DHT22;2376;53.544;10.226;2023-05-10T08:27:19;17.80;86.30
4725;DHT22;2376;53.544;10.226;2023-05-10T08:29:46;17.80;85.00
4725;DHT22;2376;53.544;10.226;2023-05-10T08:32:12;17.90;83.80
4725;DHT22;2376;53.544;10.226;2023-05-10T08:34:39;17.90;84.30
4725;DHT22;2376;53.544;10.226;2023-05-10T08:37:07;18.00;83.70
4725;DHT22;2376;53.544;10.226;2023-05-10T08:39:34;18.10;83.80
4725;DHT22;2376;53.544;10.226;2023-05-10T08:42:03;18.10;85.70
4725;DHT22;2376;53.544;10.226;2023-05-10T08:44:31;18.20;85.70
4725;DHT22;2376;53.544;10.226;2023-05-10T08:46:59;17.70;82.30
4725;DHT22;2376;53.544;10.226;2023-05-10T08:49:31;17.70;88.20
4725;DHT22;2376;53.544;10.226;2023-05-10T08:52:01;17.90;84.90
4725;DHT22;2376;53.544;10.226;2023-05-10T08:54:31;18.00;82.00
4725;DHT22;2376;53.544;10.226;2023-05-10T08:56:58;18.10;82.60
4725;DHT22;2376;53.544;10.226;2023-05-10T08:59:25;18.30;82.40
4725;DHT22;2376;53.544;10.226;2023-05-10T09:01:52;18.40;81.50
4725;DHT22;2376;53.544;10.226;2023-05-10T09:04:21;18.40;82.20
4725;DHT22;2376;53.544;10.226;2023-05-10T09:06:47;18.50;83.30
4725;DHT22;2376;53.544;10.226;2023-05-10T09:09:14;18.40;80.70
4725;DHT22;2376;53.544;10.226;2023-05-10T09:11:43;18.40;80.10
4725;DHT22;2376;53.544;10.226;2023-05-10T09:14:11;18.60;80.50
4725;DHT22;2376;53.544;10.226;2023-05-10T09:16:39;18.60;81.30
4725;DHT22;2376;53.544;10.226;2023-05-10T09:19:06;18.60;80.30
4725;DHT22;2376;53.544;10.226;2023-05-10T09:21:35;18.60;79.90
4725;DHT22;2376;53.544;10.226;2023-05-10T09:24:04;18.60;81.10
4725;DHT22;2376;53.544;10.226;2023-05-10T09:26:31;18.60;80.90
4725;DHT22;2376;53.544;10.226;2023-05-10T09:29:00;18.50;80.60
4725;DHT22;2376;53.544;10.226;2023-05-10T09:31:43;18.50;83.10
4725;DHT22;2376;53.544;10.226;2023-05-10T09:34:10;18.30;84.70
4725;DHT22;2376;53.544;10.226;2023-05-10T09:36:36;18.40;85.40
4725;DHT22;2376;53.544;10.226;2023-05-10T09:39:15;18.50;84.30
4725;DHT22;2376;53.544;10.226;2023-05-10T09:41:43;18.30;85.60
4725;DHT22;2376;53.544;10.226;2023-05-10T09:44:11;18.30;84.50
4725;DHT22;2376;53.544;10.226;2023-05-10T09:46:38;18.30;86.00
4725;DHT22;2376;53.544;10.226;2023-05-10T09:49:05;18.40;86.90
4725;DHT22;2376;53.544;10.226;2023-05-10T09:51:32;18.40;87.00
4725;DHT22;2376;53.544;10.226;2023-05-10T09:54:11;18.40;88.10
4725;DHT22;2376;53.544;10.226;2023-05-10T09:56:38;18.30;89.90
4725;DHT22;2376;53.544;10.226;2023-05-10T09:59:07;18.20;89.40
4725;DHT22;2376;53.544;10.226;2023-05-10T10:01:35;18.10;91.60
4725;DHT22;2376;53.544;10.226;2023-05-10T10:04:03;18.00;93.70
4725;DHT22;2376;53.544;10.226;2023-05-10T10:06:35;17.90;95.80
4725;DHT22;2376;53.544;10.226;2023-05-10T10:09:03;17.80;95.90
4725;DHT22;2376;53.544;10.226;2023-05-10T10:11:30;17.80;95.70
4725;DHT22;2376;53.544;10.226;2023-05-10T10:13:57;17.60;97.00
4725;DHT22;2376;53.544;10.226;2023-05-10T10:16:24;17.70;98.00
4725;DHT22;2376;53.544;10.226;2023-05-10T10:18:52;17.60;99.30
4725;DHT22;2376;53.544;10.226;2023-05-10T10:21:19;17.60;99.90
4725;DHT22;2376;53.544;10.226;2023-05-10T10:23:46;17.60;99.90
4725;DHT22;2376;53.544;10.226;2023-05-10T10:26:14;17.60;99.90
4725;DHT22;2376;53.544;10.226;2023-05-10T10:28:49;17.60;99.90
4725;DHT22;2376;53.544;10.226;2023-05-10T10:31:25;17.50;99.90
4725;DHT22;2376;53.544;10.226;2023-05-10T10:34:00;17.40;99.90
4725;DHT22;2376;53.544;10.226;2023-05-10T10:36:28;17.40;99.90
4725;DHT22;2376;53.544;10.226;2023-05-10T10:38:55;17.30;99.90
4725;DHT22;2376;53.544;10.226;2023-05-10T10:41:32;17.20;99.90
4725;DHT22;2376;53.544;10.226;2023-05-10T10:44:24;17.20;99.90
4725;DHT22;2376;53.544;10.226;2023-05-10T10:47:01;17.10;99.90
4725;DHT22;2376;53.544;10.226;2023-05-10T10:49:32;17.10;99.90
4725;DHT22;2376;53.544;10.226;2023-05-10T10:52:20;17.00;99.90
4725;DHT22;2376;53.544;10.226;2023-05-10T10:54:51;16.90;99.90
4725;DHT22;2376;53.544;10.226;2023-05-10T10:57:19;16.80;99.90
4725;DHT22;2376;53.544;10.226;2023-05-10T10:59:47;16.80;99.90
4725;DHT22;2376;53.544;10.226;2023-05-10T11:02:33;16.80;99.90
4725;DHT22;2376;53.544;10.226;2023-05-10T11:05:24;16.70;99.90
4725;DHT22;2376;53.544;10.226;2023-05-10T11:07:52;16.70;99.90
4725;DHT22;2376;53.544;10.226;2023-05-10T11:10:19;16.60;99.90
4725;DHT22;2376;53.544;10.226;2023-05-10T11:12:51;16.60;99.90
4725;DHT22;2376;53.544;10.226;2023-05-10T11:15:19;16.50;99.90
4725;DHT22;2376;53.544;10.226;2023-05-10T11:17:47;16.50;99.90
4725;DHT22;2376;53.544;10.226;2023-05-10T11:20:18;16.60;99.90
4725;DHT22;2376;53.544;10.226;2023-05-10T11:22:51;16.70;99.90
4725;DHT22;2376;53.544;10.226;2023-05-10T11:25:18;16.80;99.90
4725;DHT22;2376;53.544;10.226;2023-05-10T11:27:47;16.70;99.90
4725;DHT22;2376;53.544;10.226;2023-05-10T11:30:14;16.80;99.90
4725;DHT22;2376;53.544;10.226;2023-05-10T11:32:41;16.70;99.90
4725;DHT22;2376;53.544;10.226;2023-05-10T11:35:08;16.70;99.90
4725;DHT22;2376;53.544;10.226;2023-05-10T11:37:37;16.70;99.90
4725;DHT22;2376;53.544;10.226;2023-05-10T11:40:07;16.60;99.90
4725;DHT22;2376;53.544;10.226;2023-05-10T11:42:36;16.70;99.90
4725;DHT22;2376;53.544;10.226;2023-05-10T11:45:04;16.70;99.90
4725;DHT22;2376;53.544;10.226;2023-05-10T11:47:31;16.80;99.90
4725;DHT22;2376;53.544;10.226;2023-05-10T11:49:57;16.80;99.90
4725;DHT22;2376;53.544;10.226;2023-05-10T11:52:25;16.80;99.90
4725;DHT22;2376;53.544;10.226;2023-05-10T11:54:54;16.90;99.90
4725;DHT22;2376;53.544;10.226;2023-05-10T11:57:25;16.90;99.90
4725;DHT22;2376;53.544;10.226;2023-05-10T11:59:53;17.00;99.90
4725;DHT22;2376;53.544;10.226;2023-05-10T12:02:20;16.90;99.90
4725;DHT22;2376;53.544;10.226;2023-05-10T12:04:47;17.00;99.90
4725;DHT22;2376;53.544;10.226;2023-05-10T12:07:14;17.20;99.90
4725;DHT22;2376;53.544;10.226;2023-05-10T12:09:42;17.30;99.90
4725;DHT22;2376;53.544;10.226;2023-05-10T12:12:15;17.30;99.90
4725;DHT22;2376;53.544;10.226;2023-05-10T12:14:42;17.40;99.90
4725;DHT22;2376;53.544;10.226;2023-05-10T12:17:11;17.40;99.90
4725;DHT22;2376;53.544;10.226;2023-05-10T12:19:38;17.40;99.90
4725;DHT22;2376;53.544;10.226;2023-05-10T12:22:05;17.40;99.90
4725;DHT22;2376;53.544;10.226;2023-05-10T12:24:34;17.40;99.90
4725;DHT22;2376;53.544;10.226;2023-05-10T12:27:04;17.40;99.90
4725;DHT22;2376;53.544;10.226;2023-05-10T12:29:34;17.40;99.90
4725;DHT22;2376;53.544;10.226;2023-05-10T12:32:01;17.30;99.90
4725;DHT22;2376;53.544;10.226;2023-05-10T12:34:31;17.30;99.90
4725;DHT22;2376;53.544;10.226;2023-05-10T12:36:58;17.30;99.90
4725;DHT22;2376;53.544;10.226;2023-05-10T12:39:25;17.30;99.90
4725;DHT22;2376;53.544;10.226;2023-05-10T12:41:52;17.30;99.90
4725;DHT22;2376;53.544;10.226;2023-05-10T12:44:19;17.30;99.90
4725;DHT22;2376;53.544;10.226;2023-05-10T12:46:47;17.30;99.90
4725;DHT22;2376;53.544;10.226;2023-05-10T12:49:14;17.30;99.90
4725;DHT22;2376;53.544;10.226;2023-05-10T12:51:40;17.40;99.90
4725;DHT22;2376;53.544;10.226;2023-05-10T12:54:07;17.40;99.90
4725;DHT22;2376;53.544;10.226;2023-05-10T12:56:34;17.40;99.90
4725;DHT22;2376;53.544;10.226;2023-05-10T12:59:00;17.50;99.90
4725;DHT22;2376;53.544;10.226;2023-05-10T13:01:28;17.60;99.90
4725;DHT22;2376;53.544;10.226;2023-05-10T13:03:56;17.60;99.90
4725;DHT22;2376;53.544;10.226;2023-05-10T13:06:23;17.60;99.90
4725;DHT22;2376;53.544;10.226;2023-05-10T13:08:49;17.70;99.90
4725;DHT22;2376;53.544;10.226;2023-05-10T13:11:17;17.80;99.90
4725;DHT22;2376;53.544;10.226;2023-05-10T13:13:45;17.80;99.90
4725;DHT22;2376;53.544;10.226;2023-05-10T13:16:11;17.60;99.90
4725;DHT22;2376;53.544;10.226;2023-05-10T13:18:38;17.70;99.90
4725;DHT22;2376;53.544;10.226;2023-05-10T13:21:06;17.80;99.90
4725;DHT22;2376;53.544;10.226;2023-05-10T13:23:33;17.80;99.90
4725;DHT22;2376;53.544;10.226;2023-05-10T13:26:00;17.70;99.90
4725;DHT22;2376;53.544;10.226;2023-05-10T13:28:26;17.80;99.90
4725;DHT22;2376;53.544;10.226;2023-05-10T13:30:53;17.90;99.90
4725;DHT22;2376;53.544;10.226;2023-05-10T13:33:19;17.90;99.90
4725;DHT22;2376;53.544;10.226;2023-05-10T13:35:46;17.90;99.90
4725;DHT22;2376;53.544;10.226;2023-05-10T13:38:14;17.80;99.90
4725;DHT22;2376;53.544;10.226;2023-05-10T13:40:41;17.90;99.90
4725;DHT22;2376;53.544;10.226;2023-05-10T13:43:07;17.90;99.90
4725;DHT22;2376;53.544;10.226;2023-05-10T13:45:34;18.00;99.90
4725;DHT22;2376;53.544;10.226;2023-05-10T13:48:01;18.10;99.90
4725;DHT22;2376;53.544;10.226;2023-05-10T13:50:27;18.10;99.90
4725;DHT22;2376;53.544;10.226;2023-05-10T13:52:54;17.90;99.90
4725;DHT22;2376;53.544;10.226;2023-05-10T13:55:22;17.90;99.90
4725;DHT22;2376;53.544;10.226;2023-05-10T13:57:49;18.00;99.90
4725;DHT22;2376;53.544;10.226;2023-05-10T14:00:16;17.50;99.90
4725;DHT22;2376;53.544;10.226;2023-05-10T14:02:43;17.60;99.90
4725;DHT22;2376;53.544;10.226;2023-05-10T14:05:09;17.80;99.90
4725;DHT22;2376;53.544;10.226;2023-05-10T14:07:36;18.00;99.90
4725;DHT22;2376;53.544;10.226;2023-05-10T14:10:03;18.20;99.90
4725;DHT22;2376;53.544;10.226;2023-05-10T14:12:31;18.20;99.90
4725;DHT22;2376;53.544;10.226;2023-05-10T14:14:58;18.40;99.90
4725;DHT22;2376;53.544;10.226;2023-05-10T14:17:25;18.50;99.90
4725;DHT22;2376;53.544;10.226;2023-05-10T14:19:52;18.70;99.90
4725;DHT22;2376;53.544;10.226;2023-05-10T14:22:19;18.70;99.90
4725;DHT22;2376;53.544;10.226;2023-05-10T14:24:45;18.80;99.90
4725;DHT22;2376;53.544;10.226;2023-05-10T14:27:12;18.80;99.90
4725;DHT22;2376;53.544;10.226;2023-05-10T14:29:40;18.70;99.90
4725;DHT22;2376;53.544;10.226;2023-05-10T14:32:07;18.70;99.90
4725;DHT22;2376;53.544;10.226;2023-05-10T14:34:34;18.70;99.90
4725;DHT22;2376;53.544;10.226;2023-05-10T14:37:01;18.80;99.90
4725;DHT22;2376;53.544;10.226;2023-05-10T14:39:27;18.80;99.90
4725;DHT22;2376;53.544;10.226;2023-05-10T14:41:55;18.90;99.90
4725;DHT22;2376;53.544;10.226;2023-05-10T14:44:21;19.00;99.90
4725;DHT22;2376;53.544;10.226;2023-05-10T14:46:50;19.00;99.90
4725;DHT22;2376;53.544;10.226;2023-05-10T14:49:17;19.00;99.90
4725;DHT22;2376;53.544;10.226;2023-05-10T14:51:43;19.00;99.90
4725;DHT22;2376;53.544;10.226;2023-05-10T14:54:11;19.00;99.90
4725;DHT22;2376;53.544;10.226;2023-05-10T14:56:37;19.00;99.90
4725;DHT22;2376;53.544;10.226;2023-05-10T14:59:04;19.10;99.90
4725;DHT22;2376;53.544;10.226;2023-05-10T15:01:31;19.20;99.90
4725;DHT22;2376;53.544;10.226;2023-05-10T15:03:59;19.20;99.90
4725;DHT22;2376;53.544;10.226;2023-05-10T15:06:30;19.30;99.90
4725;DHT22;2376;53.544;10.226;2023-05-10T15:08:57;19.20;99.90
4725;DHT22;2376;53.544;10.226;2023-05-10T15:11:24;19.30;99.90
4725;DHT22;2376;53.544;10.226;2023-05-10T15:13:51;19.30;99.90
4725;DHT22;2376;53.544;10.226;2023-05-10T15:16:18;19.40;99.90
4725;DHT22;2376;53.544;10.226;2023-05-10T15:18:45;19.30;99.90
4725;DHT22;2376;53.544;10.226;2023-05-10T15:21:13;19.30;99.90
4725;DHT22;2376;53.544;10.226;2023-05-10T15:23:39;19.00;99.90
4725;DHT22;2376;53.544;10.226;2023-05-10T15:26:06;18.80;99.90
4725;DHT22;2376;53.544;10.226;2023-05-10T15:28:33;19.00;99.90
4725;DHT22;2376;53.544;10.226;2023-05-10T15:30:59;19.20;99.90
4725;DHT22;2376;53.544;10.226;2023-05-10T15:33:26;19.50;99.90
4725;DHT22;2376;53.544;10.226;2023-05-10T15:35:53;19.30;99.90
4725;DHT22;2376;53.544;10.226;2023-05-10T15:38:21;19.50;99.90
4725;DHT22;2376;53.544;10.226;2023-05-10T15:40:48;19.60;99.90
4725;DHT22;2376;53.544;10.226;2023-05-10T15:43:15;19.80;99.90
4725;DHT22;2376;53.544;10.226;2023-05-10T15:45:42;19.80;99.90
4725;DHT22;2376;53.544;10.226;2023-05-10T15:48:08;19.80;99.90
4725;DHT22;2376;53.544;10.226;2023-05-10T15:50:35;19.10;99.90